Time;durP1;ratioP1;P1;durP2;ratioP2;P2;SDS_P1;SDS_P2;PMS_P1;PMS_P2;Temp;Humidity;BMP_temperature;BMP_pressure;BME280_temperature;BME280_humidity;BME280_pressure;Samples;Min_cycle;Max_cycle;Signal;HPM_P1;HPM_P2
2023/09/16 00:01:29;;;;;;;25.45;20.33;;;;;;;14.10;100.00;101312.59;5011430;28;20025;-64
2023/09/16 00:03:54;;;;;;;24.92;20.48;;;;;;;14.08;100.00;101312.09;5012793;28;20113;-63
2023/09/16 00:06:20;;;;;;;26.67;20.92;;;;;;;14.07;100.00;101302.13;5013050;28;20057;-63
2023/09/16 00:08:45;;;;;;;25.25;20.55;;;;;;;14.08;100.00;101311.28;5012800;28;20396;-64
2023/09/16 00:11:10;;;;;;;25.27;21.10;;;;;;;14.07;100.00;101312.41;5012768;28;20107;-63
2023/09/16 00:13:37;;;;;;;25.40;20.65;;;;;;;14.07;100.00;101304.06;5012643;28;20030;-63
2023/09/16 00:16:02;;;;;;;25.45;21.40;;;;;;;14.06;100.00;101305.19;5012597;28;20518;-63
2023/09/16 00:18:28;;;;;;;24.58;20.05;;;;;;;14.09;100.00;101307.34;5012693;28;20109;-63
2023/09/16 00:20:53;;;;;;;25.23;20.58;;;;;;;14.08;100.00;101314.06;5012846;28;20453;-64
2023/09/16 00:23:18;;;;;;;25.63;20.42;;;;;;;14.09;100.00;101304.56;5012781;28;20045;-63
2023/09/16 00:25:45;;;;;;;25.95;20.17;;;;;;;14.11;100.00;101314.25;5012674;28;20057;-63
2023/09/16 00:28:11;;;;;;;26.15;20.05;;;;;;;14.09;100.00;101308.16;5012526;28;20037;-63
2023/09/16 00:30:38;;;;;;;26.33;20.75;;;;;;;14.11;100.00;101313.44;5012500;28;20030;-63
2023/09/16 00:33:04;;;;;;;24.40;20.73;;;;;;;14.09;100.00;101312.91;5012595;28;20478;-63
2023/09/16 00:35:29;;;;;;;26.00;20.75;;;;;;;14.12;100.00;101315.06;5012399;28;20130;-63
2023/09/16 00:37:55;;;;;;;24.75;20.10;;;;;;;14.11;100.00;101313.44;5012251;28;20033;-63
2023/09/16 00:40:20;;;;;;;26.17;20.50;;;;;;;14.08;100.00;101312.09;5012189;28;20061;-64
2023/09/16 00:42:46;;;;;;;25.00;19.92;;;;;;;14.09;100.00;101312.91;5012117;28;20117;-63
2023/09/16 00:45:12;;;;;;;23.67;20.35;;;;;;;14.08;100.00;101312.09;5011761;28;20132;-63
2023/09/16 00:47:40;;;;;;;25.77;20.67;;;;;;;14.02;100.00;101305.84;5012448;28;20505;-63
2023/09/16 00:50:07;;;;;;;24.85;20.38;;;;;;;13.97;100.00;101303.19;5012289;28;20030;-63
2023/09/16 00:52:37;;;;;;;26.15;21.42;;;;;;;13.95;100.00;101296.31;5011939;28;20393;-63
2023/09/16 00:55:03;;;;;;;25.75;21.48;;;;;;;13.91;100.00;101301.69;5011490;28;20034;-63
2023/09/16 00:57:30;;;;;;;25.48;21.30;;;;;;;13.88;100.00;101305.09;5011760;28;20084;-63
2023/09/16 00:59:56;;;;;;;24.92;21.10;;;;;;;13.82;100.00;101295.25;5011678;28;20442;-63
2023/09/16 01:02:21;;;;;;;26.60;21.08;;;;;;;13.81;100.00;101299.97;5011660;28;20026;-63
2023/09/16 01:04:47;;;;;;;26.95;22.17;;;;;;;13.80;100.00;101298.34;5011791;28;20068;-63
2023/09/16 01:07:14;;;;;;;27.67;22.88;;;;;;;13.75;100.00;101295.69;5011844;28;20865;-63
2023/09/16 01:09:40;;;;;;;26.05;22.20;;;;;;;13.68;100.00;101292.56;5011768;28;20465;-63
2023/09/16 01:12:07;;;;;;;24.52;20.75;;;;;;;13.58;100.00;101290.84;5011787;28;20096;-64
2023/09/16 01:14:33;;;;;;;28.20;22.17;;;;;;;13.54;100.00;101293.44;5011585;28;20444;-63
2023/09/16 01:17:23;;;;;;;27.20;22.40;;;;;;;13.49;100.00;101287.16;5011710;28;20053;-65
2023/09/16 01:20:13;;;;;;;28.10;22.90;;;;;;;13.44;100.00;101285.31;5010371;28;20030;-64
2023/09/16 01:22:44;;;;;;;28.92;23.33;;;;;;;13.40;100.00;101282.38;5011530;28;20088;-63
2023/09/16 01:25:10;;;;;;;26.95;22.35;;;;;;;13.36;100.00;101280.50;5011646;28;20545;-63
2023/09/16 01:27:37;;;;;;;26.52;22.75;;;;;;;13.35;100.00;101284.41;5011511;28;20105;-64
2023/09/16 01:30:05;;;;;;;27.25;22.88;;;;;;;13.35;100.00;101287.19;5011612;28;20026;-63
2023/09/16 01:32:39;;;;;;;27.00;23.38;;;;;;;13.32;100.00;101277.53;5011445;28;20037;-63
2023/09/16 01:35:08;;;;;;;26.63;23.30;;;;;;;13.31;100.00;101275.88;5011359;28;20030;-64
2023/09/16 01:37:35;;;;;;;29.83;23.23;;;;;;;13.32;100.00;101288.66;5011253;28;20067;-63
2023/09/16 01:40:01;;;;;;;27.02;23.65;;;;;;;13.34;100.00;101286.38;5011411;28;20033;-63
2023/09/16 01:42:29;;;;;;;27.60;23.65;;;;;;;13.32;100.00;101285.88;5011345;28;20026;-63
2023/09/16 01:44:54;;;;;;;27.15;23.38;;;;;;;13.35;100.00;101282.47;5011194;28;20056;-64
2023/09/16 01:47:20;;;;;;;28.10;23.02;;;;;;;13.36;100.00;101286.91;5011187;28;20498;-63
2023/09/16 01:49:46;;;;;;;27.33;24.00;;;;;;;13.33;100.00;101281.94;5011146;28;20029;-63
2023/09/16 01:52:11;;;;;;;27.23;23.10;;;;;;;13.30;100.00;101279.00;5011373;28;20025;-63
2023/09/16 01:54:36;;;;;;;26.65;22.92;;;;;;;13.30;100.00;101282.56;5011078;28;20351;-63
2023/09/16 01:57:02;;;;;;;27.00;23.35;;;;;;;13.28;100.00;101276.50;5011276;28;20068;-63
2023/09/16 01:59:27;;;;;;;27.27;23.85;;;;;;;13.27;100.00;101272.09;5011375;28;20076;-63
2023/09/16 02:01:52;;;;;;;27.80;23.23;;;;;;;13.24;100.00;101265.19;5011133;28;20029;-64
2023/09/16 02:04:18;;;;;;;27.73;22.92;;;;;;;13.24;100.00;101272.72;5010944;28;20163;-63
2023/09/16 02:06:46;;;;;;;28.02;23.65;;;;;;;13.22;100.00;101277.78;5011746;28;20485;-63
2023/09/16 02:09:12;;;;;;;28.17;24.13;;;;;;;13.20;100.00;101269.75;5015157;28;20040;-63
2023/09/16 02:11:38;;;;;;;25.77;22.75;;;;;;;13.18;100.00;101269.25;5014950;28;20416;-63
2023/09/16 02:14:04;;;;;;;27.40;24.40;;;;;;;13.18;100.00;101276.75;5015022;28;20337;-64
2023/09/16 02:16:30;;;;;;;30.45;24.25;;;;;;;13.15;100.00;101277.38;5014921;28;20022;-63
2023/09/16 02:18:55;;;;;;;28.05;24.27;;;;;;;13.11;100.00;101280.78;5014876;28;20121;-63
2023/09/16 02:21:22;;;;;;;28.33;23.65;;;;;;;13.10;100.00;101278.31;5014788;28;20037;-64
2023/09/16 02:23:47;;;;;;;28.45;24.50;;;;;;;13.08;100.00;101280.59;5014892;28;20113;-63
2023/09/16 02:26:13;;;;;;;29.23;24.20;;;;;;;13.07;100.00;101273.38;5014724;28;20125;-64
2023/09/16 02:28:40;;;;;;;31.77;24.33;;;;;;;13.05;100.00;101272.88;5014703;28;20029;-63
2023/09/16 02:31:06;;;;;;;29.75;25.10;;;;;;;13.03;100.00;101270.41;5014513;28;20065;-64
2023/09/16 02:33:32;;;;;;;30.50;26.92;;;;;;;13.01;100.00;101269.09;5014574;28;20038;-63
2023/09/16 02:35:57;;;;;;;29.20;25.33;;;;;;;12.98;100.00;101265.00;5014475;28;20647;-63
2023/09/16 02:38:23;;;;;;;30.63;26.75;;;;;;;12.98;100.00;101261.38;5014529;28;20038;-63
2023/09/16 02:40:48;;;;;;;33.28;25.85;;;;;;;12.97;100.00;101265.28;5014381;28;20873;-63
2023/09/16 02:43:13;;;;;;;32.08;25.05;;;;;;;12.94;100.00;101258.41;5014261;28;20080;-63
2023/09/16 02:45:40;;;;;;;30.65;25.35;;;;;;;12.95;100.00;101262.81;5014351;28;20065;-63
2023/09/16 02:48:05;;;;;;;31.35;26.02;;;;;;;12.96;100.00;101256.13;5014339;28;20030;-63
2023/09/16 02:50:33;;;;;;;30.73;25.95;;;;;;;12.93;100.00;101256.75;5014319;28;20036;-63
2023/09/16 02:52:59;;;;;;;31.50;25.70;;;;;;;12.90;100.00;101251.81;5014186;28;20447;-63
2023/09/16 02:55:24;;;;;;;30.48;24.73;;;;;;;12.91;100.00;101259.84;5014229;28;20113;-63
2023/09/16 02:57:50;;;;;;;29.25;25.17;;;;;;;12.94;100.00;101263.97;5014228;28;20079;-64
2023/09/16 03:00:15;;;;;;;29.55;24.65;;;;;;;12.93;100.00;101260.38;5014221;28;20037;-63
2023/09/16 03:02:40;;;;;;;31.52;25.27;;;;;;;12.92;100.00;101258.72;5014063;28;20034;-63
2023/09/16 03:05:06;;;;;;;30.48;25.60;;;;;;;12.91;100.00;101259.84;5014022;28;20068;-63
2023/09/16 03:07:31;;;;;;;29.60;25.85;;;;;;;12.92;100.00;101263.44;5013917;28;20076;-64
2023/09/16 03:09:56;;;;;;;31.50;26.08;;;;;;;12.91;100.00;101275.69;5013887;28;20022;-63
2023/09/16 03:12:24;;;;;;;30.52;24.70;;;;;;;12.91;100.00;101259.84;5013910;28;20026;-63
2023/09/16 03:14:49;;;;;;;29.98;25.38;;;;;;;12.90;100.00;101254.59;5013769;28;20029;-63
2023/09/16 03:17:15;;;;;;;30.17;26.25;;;;;;;12.87;100.00;101258.81;5013690;28;20079;-63
2023/09/16 03:19:40;;;;;;;30.25;25.55;;;;;;;12.86;100.00;101251.63;5012820;28;20073;-63
2023/09/16 03:22:05;;;;;;;30.17;26.40;;;;;;;12.86;100.00;101243.28;5013637;28;20053;-64
2023/09/16 03:24:31;;;;;;;30.23;25.63;;;;;;;12.85;100.00;101249.97;5013682;28;20560;-63
2023/09/16 03:26:56;;;;;;;32.40;27.35;;;;;;;12.83;100.00;101246.72;5013676;28;20026;-63
2023/09/16 03:29:21;;;;;;;30.60;26.27;;;;;;;12.83;100.00;101243.94;5013601;28;20482;-63
2023/09/16 03:31:47;;;;;;;28.17;24.60;;;;;;;12.80;100.00;101241.78;5013546;28;20396;-63
2023/09/16 03:34:12;;;;;;;29.38;25.77;;;;;;;12.78;100.00;101244.03;5013424;28;20240;-64
2023/09/16 03:36:37;;;;;;;29.45;26.08;;;;;;;12.80;100.00;101245.34;5013527;28;20060;-63
2023/09/16 03:39:03;;;;;;;30.30;26.95;;;;;;;12.82;100.00;101247.00;5013381;28;20036;-63
2023/09/16 03:41:28;;;;;;;31.50;26.58;;;;;;;12.82;100.00;101233.13;5013454;28;20394;-63
2023/09/16 03:43:53;;;;;;;30.77;26.67;;;;;;;12.82;100.00;101238.69;5013209;28;20022;-63
2023/09/16 03:46:19;;;;;;;32.53;27.23;;;;;;;12.83;100.00;101232.84;5012922;28;20052;-63
2023/09/16 03:48:44;;;;;;;30.30;25.83;;;;;;;12.82;100.00;101231.19;5013222;28;20037;-63
2023/09/16 03:51:10;;;;;;;30.33;26.40;;;;;;;12.83;100.00;101235.59;5013219;28;20084;-64
2023/09/16 03:53:36;;;;;;;30.75;25.75;;;;;;;12.84;100.00;101231.69;5013150;28;20053;-64
2023/09/16 03:56:05;;;;;;;29.50;25.73;;;;;;;12.80;100.00;101230.66;5013093;28;20085;-64
2023/09/16 03:58:34;;;;;;;29.10;24.75;;;;;;;12.76;100.00;101230.47;5012965;28;20036;-64
2023/09/16 04:00:59;;;;;;;30.48;27.20;;;;;;;12.76;100.00;101224.09;5012756;28;20482;-63
2023/09/16 04:03:25;;;;;;;30.27;25.63;;;;;;;12.74;100.00;101232.72;5012728;28;20033;-64
2023/09/16 04:05:54;;;;;;;31.10;26.30;;;;;;;12.74;100.00;101235.50;5012956;28;20034;-63
2023/09/16 04:08:19;;;;;;;30.15;25.77;;;;;;;12.75;100.00;101230.78;5012756;28;20374;-63
2023/09/16 04:10:45;;;;;;;30.83;26.40;;;;;;;12.75;100.00;101233.56;5012832;28;20025;-63
2023/09/16 04:13:10;;;;;;;30.52;27.17;;;;;;;12.74;100.00;101238.28;5012599;28;20109;-63
2023/09/16 04:15:35;;;;;;;31.65;26.75;;;;;;;12.72;100.00;101240.53;5012642;28;20540;-64
2023/09/16 04:18:00;;;;;;;28.75;25.52;;;;;;;12.68;100.00;101233.16;5012638;28;20034;-64
2023/09/16 04:20:26;;;;;;;30.00;26.30;;;;;;;12.64;100.00;101242.13;5012639;28;20104;-64
2023/09/16 04:22:51;;;;;;;30.27;26.42;;;;;;;12.61;100.00;101247.47;5012540;28;20033;-63
2023/09/16 04:25:16;;;;;;;30.75;26.67;;;;;;;12.58;100.00;101236.97;5012439;28;20026;-63
2023/09/16 04:27:42;;;;;;;30.30;25.90;;;;;;;12.55;100.00;101238.44;5012361;28;20109;-63
2023/09/16 04:30:08;;;;;;;29.48;25.75;;;;;;;12.51;100.00;101240.16;5012130;28;20026;-63
2023/09/16 04:32:33;;;;;;;31.02;27.50;;;;;;;12.51;100.00;101234.63;5012512;28;20033;-63
2023/09/16 04:34:59;;;;;;;32.08;27.98;;;;;;;12.46;100.00;101235.53;5012350;28;20029;-63
2023/09/16 04:37:24;;;;;;;31.15;27.33;;;;;;;12.44;100.00;101231.44;5012293;28;20065;-63
2023/09/16 04:39:49;;;;;;;31.08;27.73;;;;;;;12.40;100.00;101225.69;5012115;28;20485;-63
2023/09/16 04:42:15;;;;;;;32.78;28.77;;;;;;;12.42;100.00;101225.38;5010616;28;20034;-63
2023/09/16 04:44:41;;;;;;;32.97;28.92;;;;;;;12.42;100.00;101225.38;5012145;28;20037;-63
2023/09/16 04:47:07;;;;;;;32.85;27.55;;;;;;;12.39;100.00;101226.81;5011767;28;20099;-64
2023/09/16 04:49:33;;;;;;;31.58;27.65;;;;;;;12.37;100.00;101219.94;5012377;28;20041;-63
2023/09/16 04:51:58;;;;;;;31.20;27.35;;;;;;;12.38;100.00;101232.66;5011984;28;20115;-63
2023/09/16 04:54:23;;;;;;;31.33;27.77;;;;;;;12.36;100.00;101230.22;5011851;28;20037;-63
2023/09/16 04:56:49;;;;;;;31.63;28.20;;;;;;;12.38;100.00;101221.56;5012101;28;20477;-63
2023/09/16 04:59:14;;;;;;;31.42;26.38;;;;;;;12.37;100.00;101233.81;5011869;28;20560;-63
2023/09/16 05:01:39;;;;;;;29.08;25.92;;;;;;;12.34;100.00;101232.47;5011807;28;20087;-63
2023/09/16 05:04:05;;;;;;;31.40;28.00;;;;;;;12.36;100.00;101235.75;5010233;28;20038;-63
2023/09/16 05:06:30;;;;;;;29.88;26.25;;;;;;;12.35;100.00;101225.78;5011641;28;20029;-63
2023/09/16 05:08:55;;;;;;;31.92;27.95;;;;;;;12.37;100.00;101228.28;5011685;28;20032;-63
2023/09/16 05:11:21;;;;;;;31.83;28.42;;;;;;;12.33;100.00;101228.88;5011410;28;20045;-63
2023/09/16 05:13:46;;;;;;;33.58;28.33;;;;;;;12.32;100.00;101221.69;5011452;28;20065;-63
2023/09/16 05:16:12;;;;;;;33.13;27.83;;;;;;;12.30;100.00;101228.69;5009883;28;20479;-63
2023/09/16 05:18:37;;;;;;;34.72;28.25;;;;;;;12.29;100.00;101227.03;5011339;28;20443;-64
2023/09/16 05:21:03;;;;;;;33.35;29.20;;;;;;;12.29;100.00;101221.47;5011427;28;20548;-63
2023/09/16 05:23:33;;;;;;;32.80;28.98;;;;;;;12.31;100.00;101222.81;5011242;28;20056;-63
2023/09/16 05:25:59;;;;;;;32.10;28.25;;;;;;;12.33;100.00;101231.66;5011366;28;20030;-63
2023/09/16 05:28:25;;;;;;;34.28;28.25;;;;;;;12.38;100.00;101227.94;5011500;28;20037;-64
2023/09/16 05:30:50;;;;;;;32.83;28.42;;;;;;;12.40;100.00;101227.63;5011413;28;20123;-64
2023/09/16 05:33:15;;;;;;;31.77;27.67;;;;;;;12.44;100.00;101231.44;5011537;28;20040;-64
2023/09/16 05:35:41;;;;;;;31.52;27.10;;;;;;;12.47;100.00;101233.59;5011404;28;20476;-64
2023/09/16 05:38:07;;;;;;;32.83;28.02;;;;;;;12.46;100.00;101224.44;5011288;28;20042;-64
2023/09/16 05:40:33;;;;;;;33.20;26.40;;;;;;;12.48;100.00;101224.97;5011331;28;20045;-64
2023/09/16 05:42:59;;;;;;;33.22;28.25;;;;;;;12.52;100.00;101221.56;5010942;28;20030;-64
2023/09/16 05:45:24;;;;;;;31.92;28.15;;;;;;;12.54;100.00;101222.06;5011259;28;20500;-64
2023/09/16 05:47:50;;;;;;;30.65;26.27;;;;;;;12.55;100.00;101223.72;5011511;28;20478;-64
2023/09/16 05:50:16;;;;;;;32.33;27.15;;;;;;;12.56;100.00;101231.75;5011324;28;20026;-64
2023/09/16 05:52:42;;;;;;;34.17;28.90;;;;;;;12.61;100.00;101231.63;5011272;28;20129;-64
2023/09/16 05:55:07;;;;;;;33.33;27.23;;;;;;;12.63;100.00;101226.59;5011267;28;20092;-64
2023/09/16 05:57:32;;;;;;;34.50;29.17;;;;;;;12.70;100.00;101228.97;5011295;28;20553;-64
2023/09/16 05:59:58;;;;;;;34.75;29.92;;;;;;;12.75;100.00;101226.06;5011096;28;20477;-64
2023/09/16 06:02:24;;;;;;;34.05;29.38;;;;;;;12.81;100.00;101229.53;5011308;28;20028;-64
2023/09/16 06:04:49;;;;;;;33.13;29.15;;;;;;;12.87;100.00;101227.47;5009890;28;20109;-64
2023/09/16 06:07:15;;;;;;;36.58;29.13;;;;;;;12.93;100.00;101229.00;5011271;28;20370;-64
2023/09/16 06:09:41;;;;;;;36.80;30.77;;;;;;;13.00;100.00;101228.56;5011212;28;20132;-64
2023/09/16 06:12:07;;;;;;;34.50;29.95;;;;;;;13.07;100.00;101235.34;5011315;28;20389;-64
2023/09/16 06:14:32;;;;;;;34.88;29.98;;;;;;;13.13;100.00;101236.00;5011186;28;20147;-64
2023/09/16 06:16:58;;;;;;;34.88;29.65;;;;;;;13.20;100.00;101239.19;5011128;28;20034;-64
2023/09/16 06:19:25;;;;;;;33.95;29.20;;;;;;;13.26;100.00;101243.47;5011044;28;20105;-64
2023/09/16 06:21:50;;;;;;;35.40;30.33;;;;;;;13.36;100.00;101238.81;5011174;28;20034;-64
2023/09/16 06:24:15;;;;;;;33.67;29.77;;;;;;;13.44;100.00;101251.97;5011001;28;20033;-64
2023/09/16 06:26:41;;;;;;;35.10;30.52;;;;;;;13.50;100.00;101241.56;5011101;28;20037;-64
2023/09/16 06:29:06;;;;;;;34.40;30.67;;;;;;;13.59;100.00;101239.66;5010875;28;20543;-64
2023/09/16 06:31:31;;;;;;;36.15;31.52;;;;;;;13.66;100.00;101239.22;5011087;28;20044;-65
2023/09/16 06:33:57;;;;;;;35.17;29.92;;;;;;;13.73;100.00;101245.13;5011093;28;20029;-64
2023/09/16 06:36:23;;;;;;;34.88;30.88;;;;;;;13.79;100.00;101241.06;5010980;28;20022;-64
2023/09/16 06:38:48;;;;;;;35.22;31.42;;;;;;;13.86;100.00;101237.84;5011027;28;20033;-64
2023/09/16 06:41:13;;;;;;;35.10;31.35;;;;;;;13.92;100.00;101238.53;5011192;28;20400;-64
2023/09/16 06:43:39;;;;;;;37.70;32.75;;;;;;;13.99;100.00;101236.94;5010820;28;20450;-64
2023/09/16 06:46:05;;;;;;;35.15;31.10;;;;;;;14.07;100.00;101248.44;5010700;28;20145;-64
2023/09/16 06:48:30;;;;;;;35.15;31.38;;;;;;;14.13;100.00;101242.41;5009873;28;20069;-64
2023/09/16 06:50:55;;;;;;;34.05;30.35;;;;;;;14.19;100.00;101249.47;5010933;28;20070;-64
2023/09/16 06:53:20;;;;;;;36.60;31.52;;;;;;;14.28;100.00;101257.03;5010936;28;20030;-64
2023/09/16 06:55:47;;;;;;;36.70;32.53;;;;;;;14.37;100.00;101255.09;5014503;28;20030;-64
2023/09/16 06:58:13;;;;;;;35.15;31.40;;;;;;;14.46;100.00;101260.69;5014390;28;20049;-64
2023/09/16 07:00:38;;;;;;;34.67;30.98;;;;;;;14.51;100.00;101255.81;5012882;28;20034;-64
2023/09/16 07:03:05;;;;;;;36.17;32.28;;;;;;;14.64;100.00;101258.78;5014278;28;20123;-65
2023/09/16 07:05:30;;;;;;;37.10;31.77;;;;;;;14.77;100.00;101257.84;5014240;28;20034;-64
2023/09/16 07:07:56;;;;;;;35.47;31.67;;;;;;;14.95;100.00;101255.94;5014204;28;20018;-65
2023/09/16 07:10:21;;;;;;;36.20;32.22;;;;;;;15.10;100.00;101249.06;5014147;28;20026;-64
2023/09/16 07:12:47;;;;;;;38.13;34.03;;;;;;;15.27;100.00;101244.63;5012821;28;20029;-64
2023/09/16 07:15:12;;;;;;;36.58;32.70;;;;;;;15.40;100.00;101251.97;5014300;28;20123;-64
2023/09/16 07:17:38;;;;;;;37.05;33.05;;;;;;;15.53;100.00;101257.72;5013936;28;20393;-64
2023/09/16 07:20:04;;;;;;;34.63;30.90;;;;;;;15.62;100.00;101257.72;5013661;28;20034;-64
2023/09/16 07:22:29;;;;;;;35.90;30.90;;;;;;;15.67;100.00;101251.94;5012267;28;20037;-64
2023/09/16 07:24:56;;;;;;;34.20;30.50;;;;;;;15.77;100.00;101245.22;5013742;28;20041;-64
2023/09/16 07:27:21;;;;;;;34.22;30.63;;;;;;;15.83;100.00;101249.47;5013893;28;20559;-64
2023/09/16 07:29:47;;;;;;;33.70;30.10;;;;;;;15.91;100.00;101245.84;5013459;28;20060;-65
2023/09/16 07:32:12;;;;;;;42.88;38.25;;;;;;;15.99;100.00;101252.56;5013496;28;20113;-65
2023/09/16 07:34:37;;;;;;;33.53;29.88;;;;;;;16.04;100.00;101253.22;5013435;28;20017;-65
2023/09/16 07:37:03;;;;;;;33.78;30.13;;;;;;;16.11;100.00;101247.09;5013452;28;20037;-65
2023/09/16 07:39:29;;;;;;;32.63;29.05;;;;;;;16.19;100.00;101254.63;5013401;28;20045;-64
2023/09/16 07:41:55;;;;;;;33.10;29.60;;;;;;;16.31;100.00;101255.88;5013344;28;20115;-64
2023/09/16 07:44:20;;;;;;;31.38;28.08;;;;;;;16.40;100.00;101258.63;5013148;28;20026;-63
2023/09/16 07:46:48;;;;;;;31.50;28.10;;;;;;;16.48;100.00;101263.34;5013304;28;20042;-63
2023/09/16 07:49:13;;;;;;;30.75;27.35;;;;;;;16.52;100.00;101265.13;5013395;28;20052;-63
2023/09/16 07:51:40;;;;;;;31.15;27.75;;;;;;;16.59;100.00;101269.38;5013236;28;20477;-64
2023/09/16 07:54:07;;;;;;;29.83;26.55;;;;;;;16.63;100.00;101268.34;5013275;28;20029;-64
2023/09/16 07:56:32;;;;;;;30.50;27.20;;;;;;;16.65;100.00;101268.84;5013108;28;20481;-64
2023/09/16 07:58:57;;;;;;;29.63;25.98;;;;;;;16.72;100.00;101261.94;5013124;28;20030;-64
2023/09/16 08:01:23;;;;;;;28.88;25.73;;;;;;;16.77;100.00;101267.31;5012975;28;20113;-64
2023/09/16 08:03:48;;;;;;;29.73;25.70;;;;;;;16.82;100.00;101267.94;5012855;28;20026;-64
2023/09/16 08:06:13;;;;;;;30.48;27.00;;;;;;;16.87;100.00;101266.91;5012624;28;20096;-64
2023/09/16 08:08:39;;;;;;;31.42;28.15;;;;;;;16.89;100.00;101275.78;5012949;28;20117;-64
2023/09/16 08:11:04;;;;;;;32.72;28.92;;;;;;;16.94;100.00;101270.00;5012868;28;20473;-64
2023/09/16 08:13:29;;;;;;;32.42;28.77;;;;;;;16.98;100.00;101267.34;5011526;28;20034;-64
2023/09/16 08:15:55;;;;;;;31.75;27.98;;;;;;;17.06;100.00;101268.44;5012905;28;20080;-64
2023/09/16 08:18:20;;;;;;;29.88;26.23;;;;;;;17.13;100.00;101263.13;5012800;28;20018;-64
2023/09/16 08:20:45;;;;;;;29.77;25.77;;;;;;;17.23;100.00;101261.91;5012751;28;20473;-64
2023/09/16 08:23:12;;;;;;;27.95;24.95;;;;;;;17.33;100.00;101267.09;5012536;28;20030;-65
2023/09/16 08:25:37;;;;;;;29.92;26.35;;;;;;;17.39;100.00;101271.31;5012623;28;20028;-64
2023/09/16 08:28:02;;;;;;;29.58;24.90;;;;;;;17.45;100.00;101275.53;5012641;28;20112;-64
2023/09/16 08:30:28;;;;;;;26.83;23.73;;;;;;;17.53;100.00;101279.41;5012599;28;20026;-64
2023/09/16 08:32:53;;;;;;;28.33;24.42;;;;;;;17.67;100.00;101281.06;5012573;28;20038;-64
2023/09/16 08:35:18;;;;;;;27.83;23.35;;;;;;;17.76;100.00;101281.81;5012457;28;20026;-64
2023/09/16 08:37:44;;;;;;;28.60;23.95;;;;;;;17.93;100.00;101287.25;5012476;28;20397;-64
2023/09/16 08:40:09;;;;;;;28.15;24.55;;;;;;;18.03;100.00;101282.41;5012322;28;20496;-64
2023/09/16 08:42:41;;;;;;;29.77;24.40;;;;;;;18.12;100.00;101288.72;5012181;28;20044;-64
2023/09/16 08:45:15;;;;;;;28.50;23.88;;;;;;;18.24;100.00;101282.31;5012184;28;20030;-64
2023/09/16 08:47:47;;;;;;;29.92;24.67;;;;;;;18.37;100.00;101280.31;5011154;28;20034;-64
2023/09/16 08:50:17;;;;;;;29.45;25.23;;;;;;;18.50;100.00;101284.78;5012205;28;20073;-64
2023/09/16 08:52:47;;;;;;;29.35;24.60;;;;;;;18.58;100.00;101285.00;5012101;28;20121;-64
2023/09/16 08:55:14;;;;;;;28.67;24.52;;;;;;;18.70;100.00;101291.41;5012237;28;20112;-64
2023/09/16 08:57:45;;;;;;;27.08;24.15;;;;;;;18.82;100.00;101293.38;5012126;28;20040;-64
2023/09/16 09:00:11;;;;;;;28.33;24.35;;;;;;;18.92;100.00;101291.28;5010625;28;20040;-64
2023/09/16 09:02:38;;;;;;;28.10;23.33;;;;;;;19.03;100.00;101295.25;5012254;28;20025;-64
2023/09/16 09:05:06;;;;;;;27.00;22.90;;;;;;;19.13;100.00;101294.78;5011949;28;20026;-64
2023/09/16 09:07:35;;;;;;;26.40;22.75;;;;;;;19.21;100.00;101293.00;5011874;28;20469;-64
2023/09/16 09:10:01;;;;;;;27.23;23.80;;;;;;;19.30;100.00;101293.69;5011923;28;20038;-64
2023/09/16 09:12:27;;;;;;;27.70;23.90;;;;;;;19.39;100.00;101289.91;5011917;28;20033;-64
2023/09/16 09:14:53;;;;;;;29.65;23.98;;;;;;;19.46;100.00;101290.91;5011719;28;20033;-64
2023/09/16 09:17:19;;;;;;;26.98;22.38;;;;;;;19.57;99.58;101285.63;5011065;28;20030;-64
2023/09/16 09:19:45;;;;;;;25.65;20.88;;;;;;;19.71;98.64;101295.63;5011630;28;20021;-64
2023/09/16 09:22:11;;;;;;;28.13;21.90;;;;;;;19.83;99.49;101297.56;5011708;28;20447;-64
2023/09/16 09:24:36;;;;;;;27.10;22.48;;;;;;;19.94;98.22;101295.88;5011628;28;20034;-64
2023/09/16 09:27:01;;;;;;;25.90;22.05;;;;;;;20.02;97.44;101303.34;5011777;28;20034;-64
2023/09/16 09:29:27;;;;;;;26.50;22.73;;;;;;;20.16;97.98;101311.34;5011557;28;20033;-64
2023/09/16 09:31:54;;;;;;;28.30;22.65;;;;;;;20.27;98.30;101303.16;5011462;28;20030;-64
2023/09/16 09:34:20;;;;;;;25.45;20.90;;;;;;;20.38;95.55;101307.06;5011575;28;20091;-64
2023/09/16 09:36:46;;;;;;;27.25;22.77;;;;;;;20.41;94.43;101306.34;5011594;28;20105;-64
2023/09/16 09:39:12;;;;;;;26.23;20.45;;;;;;;20.49;94.63;101303.72;5011455;28;20033;-64
2023/09/16 09:41:43;;;;;;;25.25;19.88;;;;;;;20.62;93.75;101304.44;5011313;28;20132;-64
2023/09/16 09:44:09;;;;;;;26.17;19.75;;;;;;;20.73;93.46;101302.69;5011206;28;20038;-64
2023/09/16 09:46:35;;;;;;;26.80;20.85;;;;;;;20.74;93.76;101298.72;5011018;28;20046;-64
2023/09/16 09:49:00;;;;;;;25.40;20.65;;;;;;;20.79;93.30;101312.50;5011450;28;20041;-64
2023/09/16 09:51:26;;;;;;;25.52;20.27;;;;;;;20.74;92.78;101315.59;5011181;28;20030;-64
2023/09/16 09:53:51;;;;;;;25.42;20.35;;;;;;;20.76;91.94;101318.06;5011214;28;20045;-64
2023/09/16 09:56:18;;;;;;;24.30;20.13;;;;;;;20.75;91.17;101310.78;5011164;28;20488;-64
2023/09/16 09:58:43;;;;;;;25.58;19.63;;;;;;;20.75;88.71;101322.84;5009717;28;20030;-64
2023/09/16 10:01:10;;;;;;;24.65;19.10;;;;;;;20.75;88.46;101320.03;5011104;28;20389;-64
2023/09/16 10:03:35;;;;;;;24.73;19.80;;;;;;;20.73;87.78;101322.38;5011018;28;20507;-64
2023/09/16 10:06:14;;;;;;;24.65;19.75;;;;;;;20.76;89.86;101309.63;5011192;28;20030;-64
2023/09/16 10:08:39;;;;;;;25.92;20.67;;;;;;;20.73;89.40;101309.16;5011288;28;20042;-65
2023/09/16 10:11:04;;;;;;;25.55;19.02;;;;;;;20.88;91.28;101304.69;5011137;28;20111;-64
2023/09/16 10:13:30;;;;;;;24.90;19.35;;;;;;;21.06;89.46;101301.47;5011080;28;20060;-66
2023/09/16 10:15:55;;;;;;;24.30;19.08;;;;;;;21.22;88.13;101298.59;5011077;28;20112;-64
2023/09/16 10:18:20;;;;;;;26.50;20.08;;;;;;;21.30;87.61;101299.59;5011039;28;20121;-64
2023/09/16 10:20:47;;;;;;;23.20;19.20;;;;;;;21.31;86.48;101296.41;5011004;28;20478;-64
2023/09/16 10:23:12;;;;;;;23.55;18.63;;;;;;;21.35;87.42;101291.63;5010781;28;20452;-65
2023/09/16 10:25:38;;;;;;;25.00;19.05;;;;;;;21.45;87.01;101298.69;5010928;28;20029;-64
2023/09/16 10:28:05;;;;;;;24.85;19.45;;;;;;;21.54;86.73;101300.47;5012126;28;20438;-64
2023/09/16 10:30:34;;;;;;;25.27;19.83;;;;;;;21.69;85.38;101310.06;5014608;28;20030;-64
2023/09/16 10:33:04;;;;;;;24.77;19.60;;;;;;;21.87;86.41;101314.03;5014507;28;20140;-64
2023/09/16 10:35:30;;;;;;;25.05;19.63;;;;;;;22.01;85.66;101305.03;5014761;28;20036;-64
2023/09/16 10:37:59;;;;;;;26.50;21.05;;;;;;;22.14;84.83;101297.22;5014567;28;20371;-64
2023/09/16 10:40:25;;;;;;;23.55;19.17;;;;;;;22.23;84.32;101292.13;5014544;28;20058;-64
2023/09/16 10:42:52;;;;;;;24.92;18.77;;;;;;;22.29;82.37;101295.47;5014342;28;20034;-64
2023/09/16 10:45:18;;;;;;;26.77;19.73;;;;;;;22.32;82.69;101305.16;5014057;28;20524;-64
2023/09/16 10:47:49;;;;;;;24.40;18.80;;;;;;;22.40;83.65;101292.84;5014464;28;20030;-64
2023/09/16 10:50:15;;;;;;;24.83;19.35;;;;;;;22.46;81.20;101294.19;5014382;28;20083;-64
2023/09/16 10:53:02;;;;;;;23.75;18.85;;;;;;;22.51;82.34;101291.03;5014380;28;20033;-64
2023/09/16 10:55:39;;;;;;;24.48;18.52;;;;;;;22.51;81.41;101281.75;5014186;28;20026;-65
2023/09/16 10:58:41;;;;;;;25.48;19.55;;;;;;;22.52;81.22;101289.03;5014282;28;20403;-64